createdAt,value
2022-08-19T00:04:37.569Z,24.39
2022-08-19T00:09:40.509Z,24.37
2022-08-19T00:14:43.470Z,24.33
2022-08-19T00:19:46.160Z,24.30
2022-08-19T00:24:50.705Z,24.29
2022-08-19T00:29:54.007Z,24.28
2022-08-19T00:34:56.930Z,25.30
2022-08-19T00:40:00.196Z,27.76
2022-08-19T00:45:09.871Z,28.09
2022-08-19T00:50:16.084Z,26.66
2022-08-19T00:55:24.780Z,25.80
2022-08-19T01:00:29.107Z,25.28
2022-08-19T01:05:32.341Z,24.85
2022-08-19T01:10:40.387Z,24.51
2022-08-19T01:15:47.510Z,24.19
2022-08-19T01:20:52.245Z,23.98
2022-08-19T01:25:56.973Z,24.98
2022-08-19T01:31:01.686Z,27.55
2022-08-19T01:36:14.491Z,27.81
2022-08-19T01:41:18.938Z,26.28
2022-08-19T01:46:24.995Z,25.31
2022-08-19T01:51:28.228Z,24.67
2022-08-19T01:56:31.565Z,24.23
2022-08-19T02:01:34.878Z,23.87
2022-08-19T02:06:38.441Z,24.72
2022-08-19T02:11:42.742Z,27.16
2022-08-19T02:16:45.545Z,27.42
2022-08-19T02:21:48.652Z,25.88
2022-08-19T02:26:52.316Z,24.94
2022-08-19T02:31:55.062Z,24.35
2022-08-19T02:37:01.799Z,23.90
2022-08-19T02:42:06.858Z,24.70
2022-08-19T02:47:11.008Z,27.08
2022-08-19T02:52:13.756Z,27.00
2022-08-19T02:57:16.558Z,25.56
2022-08-19T03:02:19.666Z,24.69
2022-08-19T03:07:22.727Z,24.10
2022-08-19T03:12:25.572Z,23.64
2022-08-19T03:17:28.378Z,24.51
2022-08-19T03:22:31.248Z,26.89
2022-08-19T03:27:34.342Z,27.10
2022-08-19T03:32:37.805Z,25.49
2022-08-19T03:37:48.161Z,24.45
2022-08-19T03:42:51.034Z,23.84
2022-08-19T03:47:54.791Z,23.39
2022-08-19T03:52:57.466Z,24.20
2022-08-19T03:58:00.311Z,26.52
2022-08-19T04:03:03.378Z,26.76
2022-08-19T04:08:09.682Z,25.28
2022-08-19T04:13:18.697Z,24.37
2022-08-19T04:18:21.362Z,23.80
2022-08-19T04:23:24.866Z,24.42
2022-08-19T04:28:28.052Z,26.66
2022-08-19T04:33:30.792Z,26.06
2022-08-19T04:38:33.478Z,24.84
2022-08-19T04:43:38.901Z,24.22
2022-08-19T04:48:49.268Z,23.82
2022-08-19T04:53:53.802Z,24.66
2022-08-19T04:58:57.985Z,27.00
2022-08-19T05:04:02.613Z,26.78
2022-08-19T05:09:06.715Z,25.52
2022-08-19T05:14:10.254Z,24.85
2022-08-19T05:19:31.653Z,24.48
2022-08-19T05:24:51.268Z,24.19
2022-08-19T05:30:01.289Z,25.30
2022-08-19T05:35:06.029Z,26.93
2022-08-19T05:40:10.414Z,25.90
2022-08-19T05:45:13.613Z,25.22
2022-08-19T05:50:18.610Z,24.87
2022-08-19T05:55:22.263Z,24.66
2022-08-19T06:00:25.192Z,25.62
2022-08-19T06:05:27.880Z,28.11
2022-08-19T06:10:31.127Z,28.01
2022-08-19T06:15:34.850Z,26.82
2022-08-19T06:20:54.895Z,26.26
2022-08-19T06:25:58.637Z,25.98
2022-08-19T06:31:07.537Z,25.88
2022-08-19T06:36:25.190Z,25.88
2022-08-19T06:41:29.625Z,26.00
2022-08-19T06:46:33.580Z,26.20
2022-08-19T06:51:42.494Z,26.42
2022-08-19T06:56:46.935Z,26.66
2022-08-19T07:01:52.625Z,26.96
2022-08-19T07:07:19.701Z,27.25
2022-08-19T07:12:24.003Z,27.52
2022-08-19T07:17:27.391Z,27.78
2022-08-19T07:22:30.388Z,28.00
2022-08-19T07:27:33.572Z,28.23
2022-08-19T07:32:36.598Z,28.47
2022-08-19T07:37:40.674Z,28.63
2022-08-19T07:42:44.361Z,28.70
2022-08-19T07:47:51.246Z,28.78
2022-08-19T07:52:54.221Z,28.93
2022-08-19T07:57:56.932Z,29.09
2022-08-19T08:02:59.963Z,29.30
2022-08-19T08:08:21.879Z,29.51
2022-08-19T08:13:30.550Z,29.68
2022-08-19T08:18:42.405Z,29.87
2022-08-19T08:23:45.218Z,30.07
2022-08-19T08:28:49.486Z,30.25
2022-08-19T08:33:53.018Z,30.40
2022-08-19T08:44:05.798Z,30.70
2022-08-19T08:49:28.784Z,31.02
2022-08-19T08:54:40.703Z,31.33
2022-08-19T08:59:57.045Z,31.58
2022-08-19T09:05:02.394Z,31.75
2022-08-19T09:10:25.931Z,31.78
2022-08-19T09:15:52.305Z,31.87
2022-08-19T09:20:55.381Z,32.06
2022-08-19T09:25:59.874Z,32.30
2022-08-19T09:31:02.722Z,32.43
2022-08-19T09:36:11.038Z,32.54
2022-08-19T09:41:17.357Z,32.62
2022-08-19T09:46:24.620Z,32.69
2022-08-19T09:51:30.107Z,32.81
2022-08-19T09:56:33.979Z,33.00
2022-08-19T10:01:37.109Z,33.24
2022-08-19T10:06:46.120Z,33.52
2022-08-19T10:11:54.862Z,33.71
2022-08-19T10:16:59.352Z,33.80
2022-08-19T10:22:10.061Z,33.86
2022-08-19T10:27:16.378Z,33.94
2022-08-19T10:32:19.243Z,34.12
2022-08-19T10:37:44.937Z,34.32
2022-08-19T10:42:59.927Z,34.54
2022-08-19T10:48:02.830Z,34.65
2022-08-19T10:53:11.351Z,34.74
2022-08-19T10:58:17.987Z,34.74
2022-08-19T11:03:21.861Z,34.71
2022-08-19T11:08:25.584Z,34.73
2022-08-19T11:13:30.420Z,34.64
2022-08-19T11:18:33.292Z,34.67
2022-08-19T11:23:36.057Z,34.72
2022-08-19T11:28:39.785Z,34.70
2022-08-19T11:33:47.232Z,34.78
2022-08-19T11:38:52.223Z,34.89
2022-08-19T11:43:56.236Z,34.97
2022-08-19T11:49:01.525Z,34.96
2022-08-19T11:54:06.346Z,34.96
2022-08-19T11:59:14.105Z,34.89
2022-08-19T12:04:17.506Z,34.86
2022-08-19T12:09:23.231Z,34.82
2022-08-19T12:14:26.068Z,34.78
2022-08-19T12:19:29.506Z,34.70
2022-08-19T12:24:33.841Z,34.60
2022-08-19T12:29:36.548Z,34.49
2022-08-19T12:34:40.472Z,34.46
2022-08-19T12:39:44.040Z,34.49
2022-08-19T12:44:47.138Z,34.49
2022-08-19T12:49:54.648Z,34.44
2022-08-19T12:54:59.152Z,34.42
2022-08-19T13:00:14.663Z,34.48
2022-08-19T13:05:23.840Z,34.61
2022-08-19T13:10:35.865Z,34.80
2022-08-19T13:15:42.085Z,34.92
2022-08-19T13:20:52.435Z,34.98
2022-08-19T13:26:00.787Z,35.01
2022-08-19T13:31:22.003Z,34.95
2022-08-19T13:36:24.853Z,34.72
2022-08-19T13:41:28.683Z,34.57
2022-08-19T13:46:31.709Z,34.56
2022-08-19T13:51:34.375Z,34.57
2022-08-19T13:56:45.499Z,34.54
2022-08-19T14:01:48.475Z,34.44
2022-08-19T14:06:51.262Z,34.30
2022-08-19T14:11:54.068Z,34.15
2022-08-19T14:16:56.847Z,33.99
2022-08-19T14:21:59.611Z,33.96
2022-08-19T14:27:04.325Z,33.99
2022-08-19T14:32:07.801Z,33.89
2022-08-19T14:37:18.879Z,33.81
2022-08-19T14:42:22.339Z,33.72
2022-08-19T14:47:25.084Z,33.61
2022-08-19T14:52:28.557Z,33.59
2022-08-19T14:57:31.359Z,33.67
2022-08-19T15:02:35.502Z,33.86
2022-08-19T15:07:39.381Z,34.22
2022-08-19T15:12:43.771Z,34.65
2022-08-19T15:17:47.531Z,35.09
2022-08-19T15:22:50.770Z,35.44
2022-08-19T15:27:54.182Z,35.72
2022-08-19T15:32:58.729Z,35.93
2022-08-19T15:38:01.849Z,36.09
2022-08-19T15:43:04.639Z,36.24
2022-08-19T15:48:07.846Z,36.17
2022-08-19T15:53:11.385Z,35.93
2022-08-19T15:58:34.728Z,35.89
2022-08-19T16:03:56.322Z,36.04
2022-08-19T16:09:04.424Z,36.41
2022-08-19T16:14:09.629Z,36.35
2022-08-19T16:19:15.726Z,35.79
2022-08-19T16:24:21.477Z,35.19
2022-08-19T16:29:33.406Z,34.59
2022-08-19T16:34:39.125Z,34.13
2022-08-19T16:39:43.741Z,33.79
2022-08-19T16:44:47.127Z,33.52
2022-08-19T16:49:53.464Z,33.28
2022-08-19T16:54:58.288Z,33.05
2022-08-19T17:00:05.787Z,32.88
2022-08-19T17:05:10.150Z,32.72
2022-08-19T17:10:12.907Z,32.54
2022-08-19T17:15:15.704Z,32.31
2022-08-19T17:20:19.507Z,32.12
2022-08-19T17:25:23.292Z,31.94
2022-08-19T17:30:26.384Z,31.77
2022-08-19T17:35:29.346Z,31.61
2022-08-19T17:40:32.525Z,31.42
2022-08-19T17:45:37.767Z,31.24
2022-08-19T17:50:41.842Z,31.11
2022-08-19T17:55:48.129Z,30.95
2022-08-19T18:00:53.792Z,30.78
2022-08-19T18:05:57.223Z,30.64
2022-08-19T18:11:00.747Z,30.51
2022-08-19T18:16:07.217Z,30.39
2022-08-19T18:21:10.425Z,30.27
2022-08-19T18:26:13.488Z,30.14
2022-08-19T18:31:17.080Z,30.00
2022-08-19T18:36:37.497Z,29.87
2022-08-19T18:42:01.449Z,29.75
2022-08-19T18:47:23.151Z,29.61
2022-08-19T18:52:27.299Z,29.47
2022-08-19T18:57:30.121Z,29.40
2022-08-19T19:02:39.048Z,29.33
2022-08-19T19:07:42.370Z,29.25
2022-08-19T19:12:45.207Z,29.17
2022-08-19T19:17:47.926Z,29.11
2022-08-19T19:22:50.805Z,29.02
2022-08-19T19:27:59.185Z,28.93
2022-08-19T19:33:02.510Z,28.79
2022-08-19T19:38:05.285Z,28.67
2022-08-19T19:43:08.805Z,28.55
2022-08-19T19:48:13.566Z,28.45
2022-08-19T19:53:16.409Z,28.36
2022-08-19T19:58:21.260Z,28.26
2022-08-19T20:03:31.826Z,28.18
2022-08-19T20:08:54.760Z,28.11
2022-08-19T20:14:01.134Z,28.05
2022-08-19T20:19:04.183Z,28.02
2022-08-19T20:24:09.817Z,27.98
2022-08-19T20:29:39.327Z,27.94
2022-08-19T20:34:39.319Z,27.93
2022-08-19T20:39:42.288Z,27.90
2022-08-19T20:44:45.430Z,27.88
2022-08-19T20:49:48.174Z,27.85
2022-08-19T20:54:50.873Z,27.82
2022-08-19T20:59:54.038Z,27.76
2022-08-19T21:04:59.064Z,27.72
2022-08-19T21:10:03.764Z,27.67
2022-08-19T21:15:08.634Z,27.64
2022-08-19T21:20:11.892Z,27.61
2022-08-19T21:25:16.468Z,27.57
2022-08-19T21:30:19.699Z,27.54
2022-08-19T21:35:23.826Z,27.51
2022-08-19T21:40:27.807Z,27.46
2022-08-19T21:45:30.664Z,27.43
2022-08-19T21:50:33.322Z,27.40
2022-08-19T21:55:36.126Z,27.36
2022-08-19T22:00:40.003Z,27.33
2022-08-19T22:05:43.748Z,27.28
2022-08-19T22:10:46.631Z,27.24
2022-08-19T22:15:51.999Z,27.21
2022-08-19T22:20:54.800Z,27.18
2022-08-19T22:25:57.503Z,27.16
2022-08-19T22:31:00.198Z,27.12
2022-08-19T22:36:09.611Z,27.09
2022-08-19T22:41:12.335Z,27.06
2022-08-19T22:46:17.282Z,27.03
2022-08-19T22:51:38.937Z,27.00
2022-08-19T22:56:42.390Z,26.93
2022-08-19T23:01:46.421Z,26.88
2022-08-19T23:06:49.198Z,26.86
2022-08-19T23:11:51.892Z,26.83
2022-08-19T23:16:58.745Z,26.76
2022-08-19T23:22:02.093Z,26.60
2022-08-19T23:27:23.552Z,26.42
2022-08-19T23:32:27.376Z,26.23
2022-08-19T23:37:30.153Z,26.08
2022-08-19T23:42:32.931Z,25.94
2022-08-19T23:47:35.961Z,25.81
2022-08-19T23:52:50.539Z,25.65
2022-08-19T23:57:54.059Z,25.47
